createdAt,value
2018-11-21T00:02:24.450Z,2.07
2018-11-21T00:04:54.126Z,2.24
2018-11-21T00:07:23.800Z,2.19
2018-11-21T00:09:53.849Z,2.08
2018-11-21T00:12:23.570Z,2.28
2018-11-21T00:14:53.283Z,2.06
2018-11-21T00:17:23.196Z,2.19
2018-11-21T00:19:52.881Z,2.27
2018-11-21T00:22:22.810Z,2.34
2018-11-21T00:24:52.493Z,2.29
2018-11-21T00:27:22.159Z,2.19
2018-11-21T00:29:51.931Z,2.13
2018-11-21T00:32:22.859Z,2.29
2018-11-21T00:34:53.502Z,2.17
2018-11-21T00:37:23.838Z,2.33
2018-11-21T00:39:54.182Z,2.14
2018-11-21T00:42:23.845Z,1.78
2018-11-21T00:44:53.561Z,1.61
2018-11-21T00:47:23.233Z,1.94
2018-11-21T00:49:53.188Z,1.91
2018-11-21T00:52:23.138Z,1.89
2018-11-21T00:54:52.825Z,1.84
2018-11-21T00:57:24.219Z,1.73
2018-11-21T00:59:54.105Z,1.80
2018-11-21T01:02:23.780Z,2.11
2018-11-21T01:04:53.542Z,2.06
2018-11-21T01:07:23.485Z,2.22
2018-11-21T01:09:53.533Z,2.07
2018-11-21T01:12:23.227Z,2.01
2018-11-21T01:14:52.963Z,1.68
2018-11-21T01:17:23.213Z,1.68
2018-11-21T01:19:53.421Z,1.31
2018-11-21T01:22:23.094Z,1.19
2018-11-21T01:24:53.049Z,1.09
2018-11-21T01:27:22.753Z,0.94
2018-11-21T01:29:52.441Z,0.93
2018-11-21T01:32:22.604Z,0.82
2018-11-21T01:34:52.239Z,0.90
2018-11-21T01:37:21.914Z,1.03
2018-11-21T01:39:51.574Z,1.05
2018-11-21T01:42:21.237Z,0.85
2018-11-21T01:44:50.910Z,0.86
2018-11-21T01:47:21.674Z,0.83
2018-11-21T01:49:51.570Z,0.80
2018-11-21T01:52:21.279Z,0.73
2018-11-21T01:54:50.969Z,0.66
2018-11-21T01:57:20.662Z,0.65
2018-11-21T01:59:50.355Z,0.68
2018-11-21T02:02:20.040Z,0.64
2018-11-21T02:04:49.694Z,0.60
2018-11-21T02:07:20.132Z,0.55
2018-11-21T02:09:50.032Z,0.64
2018-11-21T02:12:19.699Z,0.70
2018-11-21T02:14:49.376Z,0.72
2018-11-21T02:17:19.060Z,0.91
2018-11-21T02:19:49.014Z,0.99
2018-11-21T02:22:19.168Z,1.02
2018-11-21T02:24:49.138Z,1.00
2018-11-21T02:27:19.587Z,1.10
2018-11-21T02:29:49.569Z,0.93
2018-11-21T02:32:19.300Z,0.92
2018-11-21T02:34:48.959Z,0.88
2018-11-21T02:37:18.630Z,1.10
2018-11-21T02:39:48.559Z,1.18
2018-11-21T02:42:18.233Z,1.18
2018-11-21T02:44:48.130Z,1.22
2018-11-21T02:47:17.801Z,1.39
2018-11-21T02:49:47.736Z,1.82
2018-11-21T02:52:17.470Z,1.96
2018-11-21T02:54:47.475Z,2.23
2018-11-21T02:57:18.780Z,1.93
2018-11-21T02:59:50.065Z,1.84
2018-11-21T03:02:20.112Z,1.73
2018-11-21T03:04:49.758Z,1.69
2018-11-21T03:07:19.731Z,1.63
2018-11-21T03:09:49.416Z,1.63
2018-11-21T03:12:19.576Z,1.58
2018-11-21T03:14:49.666Z,1.42
2018-11-21T03:17:19.637Z,1.44
2018-11-21T03:19:50.399Z,1.16
2018-11-21T03:22:20.583Z,0.97
2018-11-21T03:24:50.658Z,0.91
2018-11-21T03:27:20.569Z,0.92
2018-11-21T03:29:50.311Z,0.90
2018-11-21T03:32:19.962Z,0.95
2018-11-21T03:34:50.859Z,1.15
2018-11-21T03:37:20.508Z,1.27
2018-11-21T03:39:50.199Z,1.43
2018-11-21T03:42:19.907Z,1.68
2018-11-21T03:44:49.867Z,1.72
2018-11-21T03:47:20.544Z,1.70
2018-11-21T03:49:49.526Z,1.56
2018-11-21T03:52:19.475Z,1.45
2018-11-21T03:54:49.189Z,1.56
2018-11-21T03:57:19.125Z,1.63
2018-11-21T03:59:49.032Z,1.58
2018-11-21T04:02:18.683Z,1.69
2018-11-21T04:04:48.642Z,1.74
2018-11-21T04:07:18.365Z,1.72
2018-11-21T04:09:48.277Z,1.69
2018-11-21T04:12:17.966Z,1.67
2018-11-21T04:14:47.650Z,1.53
2018-11-21T04:17:17.306Z,1.56
2018-11-21T04:19:47.218Z,1.68
2018-11-21T04:22:17.126Z,1.58
2018-11-21T04:24:47.076Z,1.46
2018-11-21T04:27:16.975Z,1.31
2018-11-21T04:29:46.941Z,1.27
2018-11-21T04:32:16.618Z,1.19
2018-11-21T04:34:46.331Z,1.17
2018-11-21T04:37:16.276Z,1.14
2018-11-21T04:39:45.957Z,1.01
2018-11-21T04:42:15.637Z,1.01
2018-11-21T04:44:45.329Z,0.88
2018-11-21T04:47:15.287Z,0.73
2018-11-21T04:49:44.961Z,0.61
2018-11-21T04:52:14.695Z,0.67
2018-11-21T04:54:44.357Z,0.53
2018-11-21T04:57:14.058Z,0.27
2018-11-21T04:59:43.717Z,0.33
2018-11-21T05:02:13.648Z,0.33
2018-11-21T05:04:43.330Z,0.14
2018-11-21T05:07:13.016Z,0.14
2018-11-21T05:09:42.979Z,0.09
2018-11-21T05:12:13.672Z,0.19
2018-11-21T05:14:43.334Z,0.21
2018-11-21T05:17:13.272Z,0.23
2018-11-21T05:19:43.024Z,0.29
2018-11-21T05:22:12.943Z,0.32
2018-11-21T05:24:43.184Z,0.26
2018-11-21T05:27:12.840Z,0.32
2018-11-21T05:29:42.524Z,0.20
2018-11-21T05:32:12.328Z,0.22
2018-11-21T05:34:42.330Z,0.19
2018-11-21T05:37:12.497Z,0.15
2018-11-21T05:39:42.194Z,0.17
2018-11-21T05:42:11.834Z,0.33
2018-11-21T05:44:41.514Z,0.30
2018-11-21T05:47:11.184Z,0.32
2018-11-21T05:49:40.865Z,0.21
2018-11-21T05:52:11.011Z,0.21
2018-11-21T05:54:40.723Z,0.20
2018-11-21T05:57:10.386Z,0.31
2018-11-21T05:59:40.315Z,0.42
2018-11-21T06:02:10.533Z,0.47
2018-11-21T06:04:40.247Z,0.49
2018-11-21T06:07:09.889Z,0.46
2018-11-21T06:09:39.975Z,0.40
2018-11-21T06:12:09.630Z,0.36
2018-11-21T06:14:39.533Z,0.37
2018-11-21T06:17:09.445Z,0.38
2018-11-21T06:19:39.380Z,0.69
2018-11-21T06:22:09.032Z,0.53
2018-11-21T06:24:38.697Z,0.60
2018-11-21T06:27:08.388Z,0.42
2018-11-21T06:29:38.058Z,0.35
2018-11-21T06:32:07.927Z,0.13
2018-11-21T06:34:37.899Z,0.10
2018-11-21T06:37:07.551Z,0.07
2018-11-21T06:39:37.228Z,-0.02
2018-11-21T06:42:06.901Z,0.04
2018-11-21T06:44:36.575Z,-0.05
2018-11-21T06:47:06.370Z,0.05
2018-11-21T06:49:36.027Z,0.03
2018-11-21T06:52:05.785Z,-0.10
2018-11-21T06:54:35.464Z,-0.16
2018-11-21T06:57:05.235Z,-0.14
2018-11-21T06:59:35.169Z,-0.16
2018-11-21T07:02:05.413Z,-0.02
2018-11-21T07:04:35.063Z,-0.10
2018-11-21T07:07:05.091Z,-0.01
2018-11-21T07:09:34.989Z,-0.06
2018-11-21T07:12:04.866Z,-0.06
2018-11-21T07:14:34.526Z,-0.11
2018-11-21T07:17:04.221Z,-0.15
2018-11-21T07:19:33.872Z,-0.10
2018-11-21T07:22:03.884Z,-0.06
2018-11-21T07:24:33.557Z,0.08
2018-11-21T07:27:03.520Z,0.37
2018-11-21T07:29:34.689Z,0.69
2018-11-21T07:32:03.341Z,0.78
2018-11-21T07:34:33.383Z,0.72
2018-11-21T07:37:03.321Z,0.79
2018-11-21T07:39:32.974Z,0.85
2018-11-21T07:42:02.930Z,0.84
2018-11-21T07:44:32.573Z,0.83
2018-11-21T07:47:02.252Z,0.88
2018-11-21T07:49:31.906Z,0.96
2018-11-21T07:52:01.729Z,0.95
2018-11-21T07:54:31.369Z,0.93
2018-11-21T07:57:31.435Z,0.93
2018-11-21T08:00:38.586Z,1.00
2018-11-21T08:03:10.938Z,1.13
2018-11-21T08:05:44.321Z,1.25
2018-11-21T08:08:30.540Z,1.49
2018-11-21T08:11:17.858Z,1.60
2018-11-21T08:14:06.673Z,1.62
2018-11-21T08:16:51.143Z,1.69
2018-11-21T08:19:38.419Z,1.85
2018-11-21T08:22:29.728Z,1.84
2018-11-21T08:25:18.814Z,1.84
2018-11-21T08:28:06.544Z,1.91
2018-11-21T08:30:36.680Z,2.18
2018-11-21T08:33:06.381Z,2.24
2018-11-21T08:35:36.078Z,2.25
2018-11-21T08:38:06.168Z,2.47
2018-11-21T08:40:35.854Z,2.46
2018-11-21T08:43:06.471Z,2.66
2018-11-21T08:45:36.203Z,2.72
2018-11-21T08:48:06.594Z,2.80
2018-11-21T08:50:36.286Z,2.85
2018-11-21T08:53:06.611Z,3.05
2018-11-21T08:55:36.727Z,3.05
2018-11-21T08:58:07.088Z,3.15
2018-11-21T09:00:37.236Z,3.28
2018-11-21T09:03:07.299Z,3.41
2018-11-21T09:05:36.969Z,3.45
2018-11-21T09:08:07.709Z,3.53
2018-11-21T09:10:37.620Z,3.69
2018-11-21T09:13:07.546Z,3.73
2018-11-21T09:15:37.202Z,3.84
2018-11-21T09:18:07.145Z,4.00
2018-11-21T09:20:36.837Z,4.04
2018-11-21T09:23:06.505Z,3.98
2018-11-21T09:25:36.652Z,3.99
2018-11-21T09:28:06.315Z,4.01
2018-11-21T09:30:35.950Z,3.99
2018-11-21T09:33:05.731Z,3.91
2018-11-21T09:35:35.529Z,3.93
2018-11-21T09:38:05.346Z,3.89
2018-11-21T09:40:35.031Z,3.81
2018-11-21T09:43:04.956Z,3.83
2018-11-21T09:45:34.641Z,3.98
2018-11-21T09:48:04.635Z,4.15
2018-11-21T09:50:34.808Z,4.23
2018-11-21T09:53:04.573Z,4.35
2018-11-21T09:55:34.493Z,4.39
2018-11-21T09:58:04.210Z,4.58
2018-11-21T10:01:10.134Z,4.50
2018-11-21T10:03:40.242Z,4.46
2018-11-21T10:06:30.223Z,4.48
2018-11-21T10:09:01.727Z,4.54
2018-11-21T10:11:32.495Z,4.62
2018-11-21T10:14:02.164Z,4.62
2018-11-21T10:16:31.814Z,4.60
2018-11-21T10:19:01.672Z,4.52
2018-11-21T10:21:33.011Z,4.63
2018-11-21T10:24:02.678Z,4.61
2018-11-21T10:26:32.340Z,4.62
2018-11-21T10:29:02.042Z,4.65
2018-11-21T10:31:31.947Z,4.62
2018-11-21T10:34:02.174Z,4.77
2018-11-21T10:36:31.847Z,4.65
2018-11-21T10:39:01.847Z,4.44
2018-11-21T10:41:31.518Z,4.36
2018-11-21T10:44:01.406Z,4.33
2018-11-21T10:46:31.075Z,4.55
2018-11-21T10:49:00.799Z,4.62
2018-11-21T10:51:30.445Z,4.66
2018-11-21T10:54:00.132Z,4.72
2018-11-21T10:56:29.770Z,4.59
2018-11-21T10:58:59.497Z,4.62
2018-11-21T11:01:46.921Z,4.54
2018-11-21T11:04:22.155Z,4.52
2018-11-21T11:07:10.130Z,4.51
2018-11-21T11:09:55.261Z,4.54
2018-11-21T11:12:52.791Z,4.43
2018-11-21T11:15:38.920Z,4.37
2018-11-21T11:18:33.704Z,4.61
2018-11-21T11:21:22.142Z,4.56
2018-11-21T11:24:13.527Z,4.49
2018-11-21T11:26:59.914Z,4.42
2018-11-21T11:29:41.005Z,4.45
2018-11-21T11:32:26.860Z,4.54
2018-11-21T11:35:26.897Z,4.56
2018-11-21T11:38:14.121Z,4.59
2018-11-21T11:41:03.168Z,4.44
2018-11-21T11:43:50.453Z,4.59
2018-11-21T11:46:44.935Z,4.76
2018-11-21T11:49:32.377Z,4.80
2018-11-21T11:52:19.981Z,4.53
2018-11-21T11:55:26.617Z,4.70
2018-11-21T11:58:33.340Z,4.81
2018-11-21T12:01:22.172Z,4.52
2018-11-21T12:04:13.851Z,4.61
2018-11-21T12:07:01.736Z,4.50
2018-11-21T12:09:48.936Z,4.46
2018-11-21T12:12:40.160Z,4.49
2018-11-21T12:15:36.990Z,4.53
2018-11-21T12:18:24.188Z,4.41
2018-11-21T12:21:07.516Z,4.38
2018-11-21T12:23:55.264Z,4.41
2018-11-21T12:26:42.811Z,4.43
2018-11-21T12:29:31.244Z,4.36
2018-11-21T12:32:14.004Z,4.49
2018-11-21T12:35:02.774Z,4.48
2018-11-21T12:37:50.050Z,4.63
2018-11-21T12:40:40.226Z,4.57
2018-11-21T12:43:44.250Z,4.47
2018-11-21T12:46:33.043Z,4.48
2018-11-21T12:49:20.306Z,4.52
2018-11-21T12:52:06.274Z,4.56
2018-11-21T12:55:00.930Z,4.41
2018-11-21T12:58:07.777Z,4.45
2018-11-21T13:00:55.163Z,4.50
2018-11-21T13:03:42.294Z,4.33
2018-11-21T13:06:33.815Z,4.32
2018-11-21T13:09:14.645Z,4.45
2018-11-21T13:12:15.618Z,4.33
2018-11-21T13:15:02.665Z,4.43
2018-11-21T13:17:50.550Z,4.44
2018-11-21T13:20:31.951Z,4.27
2018-11-21T13:23:20.746Z,4.29
2018-11-21T13:26:09.547Z,4.26
2018-11-21T13:28:55.756Z,4.26
2018-11-21T13:31:43.009Z,4.24
2018-11-21T13:34:30.598Z,4.21
2018-11-21T13:37:25.403Z,4.21
2018-11-21T13:40:13.218Z,4.27
2018-11-21T13:42:59.645Z,4.22
2018-11-21T13:45:47.107Z,4.36
2018-11-21T13:48:34.750Z,4.25
2018-11-21T13:51:39.189Z,4.32
2018-11-21T13:54:26.767Z,4.46
2018-11-21T13:56:56.458Z,4.38
2018-11-21T13:59:26.173Z,4.40
2018-11-21T14:01:55.930Z,4.31
2018-11-21T14:04:26.051Z,4.38
2018-11-21T14:06:55.725Z,4.43
2018-11-21T14:09:25.375Z,4.40
2018-11-21T14:11:55.062Z,4.36
2018-11-21T14:14:24.720Z,4.27
2018-11-21T14:16:54.626Z,4.37
2018-11-21T14:19:24.532Z,4.36
2018-11-21T14:21:55.924Z,4.39
2018-11-21T14:24:24.062Z,4.30
2018-11-21T14:26:53.718Z,4.30
2018-11-21T14:29:23.643Z,4.29
2018-11-21T14:31:53.315Z,4.34
2018-11-21T14:34:23.804Z,4.38
2018-11-21T14:36:54.164Z,4.36
2018-11-21T14:39:24.362Z,4.30
2018-11-21T14:41:54.030Z,4.27
2018-11-21T14:44:23.694Z,4.34
2018-11-21T14:46:54.667Z,4.40
2018-11-21T14:49:24.347Z,4.50
2018-11-21T14:51:54.012Z,4.47
2018-11-21T14:54:24.479Z,4.36
2018-11-21T14:56:54.146Z,4.35
2018-11-21T14:59:24.369Z,4.26
2018-11-21T15:01:54.056Z,4.19
2018-11-21T15:04:23.723Z,4.09
2018-11-21T15:06:53.371Z,4.14
2018-11-21T15:09:23.356Z,4.13
2018-11-21T15:11:53.589Z,4.08
2018-11-21T15:14:23.509Z,4.17
2018-11-21T15:16:53.171Z,4.14
2018-11-21T15:19:22.869Z,4.17
2018-11-21T15:21:52.845Z,4.12
2018-11-21T15:24:22.804Z,4.11
2018-11-21T15:26:52.479Z,4.10
2018-11-21T15:29:22.392Z,4.04
2018-11-21T15:31:52.042Z,4.02
2018-11-21T15:34:21.736Z,4.01
2018-11-21T15:36:51.389Z,3.92
2018-11-21T15:39:21.069Z,3.99
2018-11-21T15:41:50.739Z,4.01
2018-11-21T15:44:20.649Z,4.02
2018-11-21T15:46:50.616Z,4.06
2018-11-21T15:49:20.303Z,4.06
2018-11-21T15:51:49.962Z,4.03
2018-11-21T15:54:20.470Z,3.98
2018-11-21T15:56:50.400Z,4.09
2018-11-21T15:59:20.078Z,3.97
2018-11-21T16:01:49.742Z,4.01
2018-11-21T16:04:19.735Z,4.02
2018-11-21T16:06:49.652Z,3.98
2018-11-21T16:09:19.330Z,3.90
2018-11-21T16:11:49.020Z,3.93
2018-11-21T16:14:18.725Z,3.92
2018-11-21T16:16:48.391Z,3.93
2018-11-21T16:19:18.052Z,4.01
2018-11-21T16:21:47.741Z,3.95
2018-11-21T16:24:18.161Z,3.94
2018-11-21T16:26:47.813Z,3.92
2018-11-21T16:29:17.808Z,3.94
2018-11-21T16:31:47.979Z,3.97
2018-11-21T16:34:17.940Z,3.96
2018-11-21T16:36:47.598Z,3.99
2018-11-21T16:39:18.264Z,3.92
2018-11-21T16:41:47.945Z,3.93
2018-11-21T16:44:17.646Z,3.90
2018-11-21T16:46:47.615Z,3.96
2018-11-21T16:49:17.299Z,4.01
2018-11-21T16:51:46.949Z,4.02
2018-11-21T16:54:16.610Z,3.98
2018-11-21T16:56:46.493Z,3.96
2018-11-21T16:59:16.173Z,3.98
2018-11-21T17:01:45.823Z,3.94
2018-11-21T17:04:15.485Z,3.93
2018-11-21T17:06:45.179Z,3.89
2018-11-21T17:09:14.866Z,3.94
2018-11-21T17:11:44.551Z,4.07
2018-11-21T17:14:14.255Z,4.00
2018-11-21T17:16:43.935Z,4.01
2018-11-21T17:19:13.616Z,3.90
2018-11-21T17:21:43.300Z,3.98
2018-11-21T17:24:13.018Z,3.99
2018-11-21T17:26:42.672Z,4.01
2018-11-21T17:29:13.084Z,3.99
2018-11-21T17:31:42.753Z,3.96
2018-11-21T17:34:12.661Z,3.93
2018-11-21T17:36:42.353Z,4.03
2018-11-21T17:39:13.135Z,3.99
2018-11-21T17:41:42.921Z,4.06
2018-11-21T17:44:13.903Z,4.07
2018-11-21T17:46:43.894Z,4.01
2018-11-21T17:49:13.582Z,3.90
2018-11-21T17:51:43.258Z,3.89
2018-11-21T17:54:12.899Z,3.91
2018-11-21T17:56:42.819Z,3.91
2018-11-21T17:59:12.608Z,3.94
2018-11-21T18:01:42.303Z,3.93
2018-11-21T18:04:12.031Z,3.92
2018-11-21T18:06:41.658Z,3.97
2018-11-21T18:09:12.601Z,3.95
2018-11-21T18:11:42.639Z,3.99
2018-11-21T18:14:12.303Z,3.98
2018-11-21T18:16:41.992Z,4.01
2018-11-21T18:19:11.649Z,4.01
2018-11-21T18:21:41.331Z,3.92
2018-11-21T18:24:10.977Z,4.01
2018-11-21T18:26:40.647Z,4.02
2018-11-21T18:29:11.701Z,3.99
2018-11-21T18:31:40.240Z,3.98
2018-11-21T18:34:09.983Z,3.93
2018-11-21T18:36:39.693Z,3.86
2018-11-21T18:39:10.775Z,3.89
2018-11-21T18:41:40.726Z,3.98
2018-11-21T18:44:10.521Z,3.89
2018-11-21T18:46:40.467Z,3.89
2018-11-21T18:49:10.121Z,3.83
2018-11-21T18:51:39.826Z,3.78
2018-11-21T18:54:09.555Z,3.76
2018-11-21T18:57:04.387Z,3.77
2018-11-21T18:59:51.218Z,3.75
2018-11-21T19:02:20.894Z,3.74
2018-11-21T19:04:50.576Z,3.80
2018-11-21T19:07:20.274Z,3.77
2018-11-21T19:09:50.214Z,3.78
2018-11-21T19:12:19.921Z,3.72
2018-11-21T19:14:49.881Z,3.72
2018-11-21T19:17:19.581Z,3.71
2018-11-21T19:19:49.231Z,3.71
2018-11-21T19:22:19.141Z,3.70
2018-11-21T19:24:48.791Z,3.68
2018-11-21T19:27:18.469Z,3.69
2018-11-21T19:29:48.382Z,3.72
2018-11-21T19:32:18.066Z,3.72
2018-11-21T19:34:47.744Z,3.64
2018-11-21T19:37:18.183Z,3.69
2018-11-21T19:39:47.839Z,3.69
2018-11-21T19:42:20.288Z,3.70
2018-11-21T19:44:47.257Z,3.67
2018-11-21T19:47:17.185Z,3.65
2018-11-21T19:49:47.231Z,3.63
2018-11-21T19:52:17.150Z,3.59
2018-11-21T19:54:46.823Z,3.69
2018-11-21T19:57:16.793Z,3.72
2018-11-21T19:59:46.460Z,3.70
2018-11-21T20:02:16.331Z,3.64
2018-11-21T20:04:45.998Z,3.73
